sensor_id;sensor_type;location;lat;lon;timestamp;P1;durP1;ratioP1;P2;durP2;ratioP2
52642;SDS011;38531;53.296;6.614;2023-10-13T00:02:06;746.27;;;217.03;;
52642;SDS011;38531;53.296;6.614;2023-10-13T00:04:33;745.73;;;216.73;;
52642;SDS011;38531;53.296;6.614;2023-10-13T00:07:00;742.97;;;214.90;;
52642;SDS011;38531;53.296;6.614;2023-10-13T00:09:29;747.87;;;217.80;;
52642;SDS011;38531;53.296;6.614;2023-10-13T00:12:00;744.77;;;214.87;;
52642;SDS011;38531;53.296;6.614;2023-10-13T00:14:26;745.63;;;217.23;;
52642;SDS011;38531;53.296;6.614;2023-10-13T00:17:07;753.47;;;218.97;;
52642;SDS011;38531;53.296;6.614;2023-10-13T00:19:35;754.40;;;219.33;;
52642;SDS011;38531;53.296;6.614;2023-10-13T00:22:23;750.53;;;217.50;;
52642;SDS011;38531;53.296;6.614;2023-10-13T00:24:49;752.53;;;216.93;;
52642;SDS011;38531;53.296;6.614;2023-10-13T00:27:20;754.83;;;218.83;;
52642;SDS011;38531;53.296;6.614;2023-10-13T00:29:57;756.37;;;219.37;;
52642;SDS011;38531;53.296;6.614;2023-10-13T00:32:45;757.70;;;220.33;;
52642;SDS011;38531;53.296;6.614;2023-10-13T00:35:20;756.50;;;219.37;;
52642;SDS011;38531;53.296;6.614;2023-10-13T00:38:01;754.27;;;218.50;;
52642;SDS011;38531;53.296;6.614;2023-10-13T00:40:42;755.93;;;219.07;;
52642;SDS011;38531;53.296;6.614;2023-10-13T00:43:09;755.93;;;218.63;;
52642;SDS011;38531;53.296;6.614;2023-10-13T00:45:52;757.30;;;220.20;;
52642;SDS011;38531;53.296;6.614;2023-10-13T00:48:24;752.03;;;219.27;;
52642;SDS011;38531;53.296;6.614;2023-10-13T00:51:03;756.63;;;219.90;;
52642;SDS011;38531;53.296;6.614;2023-10-13T00:53:32;756.07;;;220.33;;
52642;SDS011;38531;53.296;6.614;2023-10-13T00:56:09;759.43;;;220.00;;
52642;SDS011;38531;53.296;6.614;2023-10-13T00:58:52;755.67;;;218.30;;
52642;SDS011;38531;53.296;6.614;2023-10-13T01:01:21;762.63;;;219.70;;
52642;SDS011;38531;53.296;6.614;2023-10-13T01:03:48;764.40;;;220.10;;
52642;SDS011;38531;53.296;6.614;2023-10-13T01:06:18;762.90;;;220.40;;
52642;SDS011;38531;53.296;6.614;2023-10-13T01:08:47;757.27;;;217.53;;
52642;SDS011;38531;53.296;6.614;2023-10-13T01:11:19;767.70;;;220.33;;
52642;SDS011;38531;53.296;6.614;2023-10-13T01:13:48;771.07;;;221.80;;
52642;SDS011;38531;53.296;6.614;2023-10-13T01:16:19;772.40;;;221.60;;
52642;SDS011;38531;53.296;6.614;2023-10-13T01:18:49;764.87;;;218.90;;
52642;SDS011;38531;53.296;6.614;2023-10-13T01:21:17;763.33;;;219.57;;
52642;SDS011;38531;53.296;6.614;2023-10-13T01:23:52;753.60;;;219.90;;
52642;SDS011;38531;53.296;6.614;2023-10-13T01:26:18;751.90;;;220.97;;
52642;SDS011;38531;53.296;6.614;2023-10-13T01:28:49;746.80;;;220.00;;
52642;SDS011;38531;53.296;6.614;2023-10-13T01:31:16;737.00;;;219.87;;
52642;SDS011;38531;53.296;6.614;2023-10-13T01:33:55;732.40;;;218.17;;
52642;SDS011;38531;53.296;6.614;2023-10-13T01:36:24;764.83;;;224.20;;
52642;SDS011;38531;53.296;6.614;2023-10-13T01:39:00;769.07;;;224.37;;
52642;SDS011;38531;53.296;6.614;2023-10-13T01:41:26;765.57;;;223.27;;
52642;SDS011;38531;53.296;6.614;2023-10-13T01:43:52;772.53;;;223.33;;
52642;SDS011;38531;53.296;6.614;2023-10-13T01:46:18;772.43;;;224.30;;
52642;SDS011;38531;53.296;6.614;2023-10-13T01:48:47;773.20;;;225.37;;
52642;SDS011;38531;53.296;6.614;2023-10-13T01:51:12;759.13;;;220.93;;
52642;SDS011;38531;53.296;6.614;2023-10-13T01:53:39;752.43;;;220.10;;
52642;SDS011;38531;53.296;6.614;2023-10-13T01:56:06;746.40;;;221.93;;
52642;SDS011;38531;53.296;6.614;2023-10-13T01:58:39;755.23;;;222.73;;
52642;SDS011;38531;53.296;6.614;2023-10-13T02:01:07;766.33;;;222.90;;
52642;SDS011;38531;53.296;6.614;2023-10-13T02:03:36;761.00;;;221.63;;
52642;SDS011;38531;53.296;6.614;2023-10-13T02:06:13;764.00;;;220.73;;
52642;SDS011;38531;53.296;6.614;2023-10-13T02:08:42;764.13;;;222.67;;
52642;SDS011;38531;53.296;6.614;2023-10-13T02:11:12;766.57;;;223.80;;
52642;SDS011;38531;53.296;6.614;2023-10-13T02:13:37;769.03;;;223.30;;
52642;SDS011;38531;53.296;6.614;2023-10-13T02:16:13;781.63;;;225.40;;
52642;SDS011;38531;53.296;6.614;2023-10-13T02:18:43;785.80;;;227.70;;
52642;SDS011;38531;53.296;6.614;2023-10-13T02:21:09;788.23;;;227.97;;
52642;SDS011;38531;53.296;6.614;2023-10-13T02:23:41;801.83;;;229.93;;
52642;SDS011;38531;53.296;6.614;2023-10-13T02:26:11;785.40;;;226.73;;
52642;SDS011;38531;53.296;6.614;2023-10-13T02:28:41;793.70;;;229.10;;
52642;SDS011;38531;53.296;6.614;2023-10-13T02:31:09;783.60;;;228.40;;
52642;SDS011;38531;53.296;6.614;2023-10-13T02:33:36;775.10;;;227.10;;
52642;SDS011;38531;53.296;6.614;2023-10-13T02:36:10;772.47;;;226.23;;
52642;SDS011;38531;53.296;6.614;2023-10-13T02:38:37;790.50;;;228.47;;
52642;SDS011;38531;53.296;6.614;2023-10-13T02:41:03;793.87;;;229.13;;
52642;SDS011;38531;53.296;6.614;2023-10-13T02:43:35;801.40;;;229.40;;
52642;SDS011;38531;53.296;6.614;2023-10-13T02:46:01;800.70;;;230.10;;
52642;SDS011;38531;53.296;6.614;2023-10-13T02:48:27;801.33;;;230.50;;
52642;SDS011;38531;53.296;6.614;2023-10-13T02:51:07;809.30;;;231.30;;
52642;SDS011;38531;53.296;6.614;2023-10-13T02:53:43;824.47;;;234.77;;
52642;SDS011;38531;53.296;6.614;2023-10-13T02:56:13;816.17;;;233.80;;
52642;SDS011;38531;53.296;6.614;2023-10-13T02:58:40;815.87;;;232.27;;
52642;SDS011;38531;53.296;6.614;2023-10-13T03:01:11;772.53;;;223.73;;
52642;SDS011;38531;53.296;6.614;2023-10-13T03:03:45;816.00;;;233.00;;
52642;SDS011;38531;53.296;6.614;2023-10-13T03:06:17;822.17;;;232.97;;
52642;SDS011;38531;53.296;6.614;2023-10-13T03:08:47;818.10;;;233.23;;
52642;SDS011;38531;53.296;6.614;2023-10-13T03:11:13;820.33;;;233.73;;
52642;SDS011;38531;53.296;6.614;2023-10-13T03:13:39;812.20;;;232.20;;
52642;SDS011;38531;53.296;6.614;2023-10-13T03:16:16;811.60;;;231.67;;
52642;SDS011;38531;53.296;6.614;2023-10-13T03:18:43;798.93;;;226.57;;
52642;SDS011;38531;53.296;6.614;2023-10-13T03:21:31;799.13;;;227.90;;
52642;SDS011;38531;53.296;6.614;2023-10-13T03:23:57;806.77;;;231.30;;
52642;SDS011;38531;53.296;6.614;2023-10-13T03:26:29;808.77;;;228.10;;
52642;SDS011;38531;53.296;6.614;2023-10-13T03:29:00;810.23;;;229.57;;
52642;SDS011;38531;53.296;6.614;2023-10-13T03:31:28;810.50;;;227.57;;
52642;SDS011;38531;53.296;6.614;2023-10-13T03:33:55;808.30;;;228.80;;
52642;SDS011;38531;53.296;6.614;2023-10-13T03:36:25;811.83;;;233.03;;
52642;SDS011;38531;53.296;6.614;2023-10-13T03:39:11;816.70;;;231.70;;
52642;SDS011;38531;53.296;6.614;2023-10-13T03:41:38;813.63;;;229.53;;
52642;SDS011;38531;53.296;6.614;2023-10-13T03:44:05;810.30;;;229.53;;
52642;SDS011;38531;53.296;6.614;2023-10-13T03:46:38;814.30;;;230.33;;
52642;SDS011;38531;53.296;6.614;2023-10-13T03:49:06;815.93;;;232.87;;
52642;SDS011;38531;53.296;6.614;2023-10-13T03:51:38;810.63;;;231.63;;
52642;SDS011;38531;53.296;6.614;2023-10-13T03:54:04;821.60;;;233.43;;
52642;SDS011;38531;53.296;6.614;2023-10-13T03:56:35;812.53;;;231.47;;
52642;SDS011;38531;53.296;6.614;2023-10-13T03:59:04;811.93;;;230.33;;
52642;SDS011;38531;53.296;6.614;2023-10-13T04:01:34;825.60;;;238.43;;
52642;SDS011;38531;53.296;6.614;2023-10-13T04:04:11;817.17;;;231.93;;
52642;SDS011;38531;53.296;6.614;2023-10-13T04:06:41;816.07;;;231.07;;
52642;SDS011;38531;53.296;6.614;2023-10-13T04:09:16;827.63;;;235.17;;
52642;SDS011;38531;53.296;6.614;2023-10-13T04:14:45;827.57;;;236.33;;
52642;SDS011;38531;53.296;6.614;2023-10-13T04:17:23;823.23;;;233.93;;
52642;SDS011;38531;53.296;6.614;2023-10-13T04:19:51;808.23;;;227.27;;
52642;SDS011;38531;53.296;6.614;2023-10-13T04:22:33;807.60;;;228.70;;
52642;SDS011;38531;53.296;6.614;2023-10-13T04:25:15;809.33;;;229.03;;
52642;SDS011;38531;53.296;6.614;2023-10-13T04:28:06;807.23;;;227.57;;
52642;SDS011;38531;53.296;6.614;2023-10-13T04:30:39;809.37;;;229.07;;
52642;SDS011;38531;53.296;6.614;2023-10-13T04:33:27;806.77;;;228.57;;
52642;SDS011;38531;53.296;6.614;2023-10-13T04:36:09;808.53;;;229.83;;
52642;SDS011;38531;53.296;6.614;2023-10-13T04:38:48;821.97;;;232.27;;
52642;SDS011;38531;53.296;6.614;2023-10-13T04:41:18;820.07;;;232.90;;
52642;SDS011;38531;53.296;6.614;2023-10-13T04:43:47;822.70;;;232.50;;
52642;SDS011;38531;53.296;6.614;2023-10-13T04:46:25;822.97;;;232.50;;
52642;SDS011;38531;53.296;6.614;2023-10-13T04:49:00;824.57;;;234.83;;
52642;SDS011;38531;53.296;6.614;2023-10-13T04:51:35;823.30;;;233.10;;
52642;SDS011;38531;53.296;6.614;2023-10-13T04:54:37;824.80;;;236.57;;
52642;SDS011;38531;53.296;6.614;2023-10-13T04:57:18;826.20;;;235.03;;
52642;SDS011;38531;53.296;6.614;2023-10-13T04:59:49;827.17;;;235.20;;
52642;SDS011;38531;53.296;6.614;2023-10-13T05:02:34;822.10;;;233.20;;
52642;SDS011;38531;53.296;6.614;2023-10-13T05:05:00;827.33;;;237.30;;
52642;SDS011;38531;53.296;6.614;2023-10-13T05:07:51;826.33;;;234.50;;
52642;SDS011;38531;53.296;6.614;2023-10-13T05:10:36;825.47;;;234.43;;
52642;SDS011;38531;53.296;6.614;2023-10-13T05:13:20;826.20;;;236.57;;
52642;SDS011;38531;53.296;6.614;2023-10-13T05:16:05;828.03;;;237.70;;
52642;SDS011;38531;53.296;6.614;2023-10-13T05:18:49;825.50;;;233.83;;
52642;SDS011;38531;53.296;6.614;2023-10-13T05:21:33;830.10;;;236.47;;
52642;SDS011;38531;53.296;6.614;2023-10-13T05:24:18;829.07;;;237.13;;
52642;SDS011;38531;53.296;6.614;2023-10-13T05:27:02;828.07;;;237.37;;
52642;SDS011;38531;53.296;6.614;2023-10-13T05:29:47;822.97;;;235.57;;
52642;SDS011;38531;53.296;6.614;2023-10-13T05:32:32;829.60;;;238.13;;
52642;SDS011;38531;53.296;6.614;2023-10-13T05:35:16;826.23;;;237.13;;
52642;SDS011;38531;53.296;6.614;2023-10-13T05:38:04;811.53;;;231.20;;
52642;SDS011;38531;53.296;6.614;2023-10-13T05:40:55;822.07;;;234.50;;
52642;SDS011;38531;53.296;6.614;2023-10-13T05:43:40;837.93;;;243.37;;
52642;SDS011;38531;53.296;6.614;2023-10-13T05:46:24;835.00;;;239.97;;
52642;SDS011;38531;53.296;6.614;2023-10-13T05:48:50;830.93;;;237.60;;
52642;SDS011;38531;53.296;6.614;2023-10-13T05:51:22;833.87;;;240.67;;
52642;SDS011;38531;53.296;6.614;2023-10-13T05:54:01;834.30;;;240.53;;
52642;SDS011;38531;53.296;6.614;2023-10-13T05:56:43;830.17;;;239.63;;
52642;SDS011;38531;53.296;6.614;2023-10-13T05:59:35;832.37;;;240.90;;
52642;SDS011;38531;53.296;6.614;2023-10-13T06:02:22;828.70;;;235.47;;
52642;SDS011;38531;53.296;6.614;2023-10-13T06:05:10;828.55;;;237.73;;
52642;SDS011;38531;53.296;6.614;2023-10-13T06:07:56;821.77;;;233.13;;
52642;SDS011;38531;53.296;6.614;2023-10-13T06:10:41;819.80;;;232.45;;
52642;SDS011;38531;53.296;6.614;2023-10-13T06:13:26;816.95;;;230.73;;
52642;SDS011;38531;53.296;6.614;2023-10-13T06:16:14;809.23;;;230.33;;
52642;SDS011;38531;53.296;6.614;2023-10-13T06:18:59;805.90;;;228.43;;
52642;SDS011;38531;53.296;6.614;2023-10-13T06:21:54;807.37;;;230.87;;
52642;SDS011;38531;53.296;6.614;2023-10-13T06:24:38;809.27;;;230.77;;
52642;SDS011;38531;53.296;6.614;2023-10-13T06:27:22;800.07;;;226.33;;
52642;SDS011;38531;53.296;6.614;2023-10-13T06:30:07;799.57;;;229.70;;
52642;SDS011;38531;53.296;6.614;2023-10-13T06:32:33;806.03;;;228.53;;
52642;SDS011;38531;53.296;6.614;2023-10-13T06:34:59;809.80;;;229.53;;
52642;SDS011;38531;53.296;6.614;2023-10-13T06:37:43;807.67;;;227.60;;
52642;SDS011;38531;53.296;6.614;2023-10-13T06:40:10;808.10;;;229.87;;
52642;SDS011;38531;53.296;6.614;2023-10-13T06:42:55;810.28;;;231.18;;
52642;SDS011;38531;53.296;6.614;2023-10-13T06:45:36;807.27;;;229.53;;
52642;SDS011;38531;53.296;6.614;2023-10-13T06:48:03;807.83;;;229.30;;
52642;SDS011;38531;53.296;6.614;2023-10-13T06:50:29;813.10;;;230.73;;
52642;SDS011;38531;53.296;6.614;2023-10-13T06:53:04;805.93;;;230.43;;
52642;SDS011;38531;53.296;6.614;2023-10-13T06:55:30;812.57;;;232.27;;
52642;SDS011;38531;53.296;6.614;2023-10-13T06:58:03;812.37;;;231.77;;
52642;SDS011;38531;53.296;6.614;2023-10-13T07:00:31;813.93;;;234.70;;
52642;SDS011;38531;53.296;6.614;2023-10-13T07:03:03;806.07;;;229.00;;
52642;SDS011;38531;53.296;6.614;2023-10-13T07:05:42;800.67;;;228.73;;
52642;SDS011;38531;53.296;6.614;2023-10-13T07:08:09;748.47;;;221.23;;
52642;SDS011;38531;53.296;6.614;2023-10-13T07:10:46;809.00;;;233.40;;
52642;SDS011;38531;53.296;6.614;2023-10-13T07:13:38;738.57;;;217.60;;
52642;SDS011;38531;53.296;6.614;2023-10-13T07:16:05;737.33;;;218.17;;
52642;SDS011;38531;53.296;6.614;2023-10-13T07:18:37;794.57;;;226.83;;
52642;SDS011;38531;53.296;6.614;2023-10-13T07:21:15;795.53;;;226.47;;
52642;SDS011;38531;53.296;6.614;2023-10-13T07:23:41;797.47;;;228.57;;
52642;SDS011;38531;53.296;6.614;2023-10-13T07:26:26;783.90;;;224.30;;
52642;SDS011;38531;53.296;6.614;2023-10-13T07:28:54;785.23;;;223.63;;
52642;SDS011;38531;53.296;6.614;2023-10-13T07:31:19;779.90;;;224.13;;
52642;SDS011;38531;53.296;6.614;2023-10-13T07:33:46;777.70;;;223.50;;
52642;SDS011;38531;53.296;6.614;2023-10-13T07:36:12;780.40;;;224.13;;
52642;SDS011;38531;53.296;6.614;2023-10-13T07:38:43;772.27;;;223.07;;
52642;SDS011;38531;53.296;6.614;2023-10-13T07:41:13;775.00;;;225.73;;
52642;SDS011;38531;53.296;6.614;2023-10-13T07:43:41;779.20;;;225.97;;
52642;SDS011;38531;53.296;6.614;2023-10-13T07:46:10;771.70;;;224.77;;
52642;SDS011;38531;53.296;6.614;2023-10-13T07:48:37;779.17;;;225.03;;
52642;SDS011;38531;53.296;6.614;2023-10-13T07:51:09;776.03;;;224.60;;
52642;SDS011;38531;53.296;6.614;2023-10-13T07:53:37;779.13;;;225.30;;
52642;SDS011;38531;53.296;6.614;2023-10-13T07:56:08;769.53;;;222.33;;
52642;SDS011;38531;53.296;6.614;2023-10-13T07:58:39;773.57;;;226.57;;
52642;SDS011;38531;53.296;6.614;2023-10-13T08:01:31;770.30;;;225.23;;
52642;SDS011;38531;53.296;6.614;2023-10-13T08:03:59;767.93;;;222.90;;
52642;SDS011;38531;53.296;6.614;2023-10-13T08:06:36;770.03;;;224.87;;
52642;SDS011;38531;53.296;6.614;2023-10-13T08:09:05;769.43;;;224.37;;
52642;SDS011;38531;53.296;6.614;2023-10-13T08:11:53;762.67;;;221.57;;
52642;SDS011;38531;53.296;6.614;2023-10-13T08:14:20;768.17;;;223.30;;
52642;SDS011;38531;53.296;6.614;2023-10-13T08:16:58;725.10;;;218.30;;
52642;SDS011;38531;53.296;6.614;2023-10-13T08:19:31;767.17;;;223.77;;
52642;SDS011;38531;53.296;6.614;2023-10-13T08:22:05;767.50;;;223.03;;
52642;SDS011;38531;53.296;6.614;2023-10-13T08:24:45;767.10;;;222.50;;
52642;SDS011;38531;53.296;6.614;2023-10-13T08:27:12;768.13;;;222.90;;
52642;SDS011;38531;53.296;6.614;2023-10-13T08:29:59;766.63;;;223.80;;
52642;SDS011;38531;53.296;6.614;2023-10-13T08:32:29;766.37;;;223.00;;
52642;SDS011;38531;53.296;6.614;2023-10-13T08:34:55;762.10;;;222.00;;
52642;SDS011;38531;53.296;6.614;2023-10-13T08:37:34;766.13;;;223.77;;
52642;SDS011;38531;53.296;6.614;2023-10-13T08:40:23;766.07;;;222.90;;
52642;SDS011;38531;53.296;6.614;2023-10-13T08:43:09;766.57;;;221.77;;
52642;SDS011;38531;53.296;6.614;2023-10-13T08:45:39;766.50;;;224.10;;
52642;SDS011;38531;53.296;6.614;2023-10-13T08:48:13;767.43;;;224.10;;
52642;SDS011;38531;53.296;6.614;2023-10-13T08:50:42;767.37;;;223.27;;
52642;SDS011;38531;53.296;6.614;2023-10-13T08:56:01;767.17;;;221.23;;
52642;SDS011;38531;53.296;6.614;2023-10-13T08:58:34;773.17;;;222.60;;
52642;SDS011;38531;53.296;6.614;2023-10-13T09:01:26;778.50;;;225.55;;
52642;SDS011;38531;53.296;6.614;2023-10-13T09:04:11;778.93;;;224.33;;
52642;SDS011;38531;53.296;6.614;2023-10-13T09:09:31;775.83;;;224.80;;
52642;SDS011;38531;53.296;6.614;2023-10-13T09:12:12;774.23;;;224.57;;
52642;SDS011;38531;53.296;6.614;2023-10-13T09:14:40;775.77;;;224.40;;
52642;SDS011;38531;53.296;6.614;2023-10-13T09:17:12;781.27;;;227.07;;
52642;SDS011;38531;53.296;6.614;2023-10-13T09:20:02;786.87;;;225.30;;
52642;SDS011;38531;53.296;6.614;2023-10-13T09:22:47;777.70;;;225.27;;
52642;SDS011;38531;53.296;6.614;2023-10-13T09:25:26;784.40;;;227.80;;
52642;SDS011;38531;53.296;6.614;2023-10-13T09:27:59;781.23;;;225.77;;
52642;SDS011;38531;53.296;6.614;2023-10-13T09:30:25;767.30;;;223.90;;
52642;SDS011;38531;53.296;6.614;2023-10-13T09:32:59;760.17;;;222.23;;
52642;SDS011;38531;53.296;6.614;2023-10-13T09:35:33;757.40;;;221.93;;
52642;SDS011;38531;53.296;6.614;2023-10-13T09:38:02;733.03;;;221.07;;
52642;SDS011;38531;53.296;6.614;2023-10-13T09:40:29;742.30;;;221.13;;
52642;SDS011;38531;53.296;6.614;2023-10-13T09:42:58;747.90;;;221.47;;
52642;SDS011;38531;53.296;6.614;2023-10-13T09:45:31;750.67;;;221.07;;
52642;SDS011;38531;53.296;6.614;2023-10-13T09:48:02;756.90;;;224.17;;
52642;SDS011;38531;53.296;6.614;2023-10-13T09:50:36;747.00;;;221.70;;
52642;SDS011;38531;53.296;6.614;2023-10-13T09:53:05;741.33;;;221.17;;
52642;SDS011;38531;53.296;6.614;2023-10-13T09:55:38;750.80;;;221.50;;
52642;SDS011;38531;53.296;6.614;2023-10-13T09:58:10;724.43;;;221.10;;
52642;SDS011;38531;53.296;6.614;2023-10-13T10:03:14;725.37;;;220.00;;
52642;SDS011;38531;53.296;6.614;2023-10-13T10:05:57;739.93;;;219.37;;
52642;SDS011;38531;53.296;6.614;2023-10-13T10:08:31;764.20;;;224.77;;
52642;SDS011;38531;53.296;6.614;2023-10-13T10:14:10;772.30;;;222.87;;
52642;SDS011;38531;53.296;6.614;2023-10-13T10:19:33;787.00;;;225.13;;
52642;SDS011;38531;53.296;6.614;2023-10-13T10:22:10;797.00;;;224.57;;
52642;SDS011;38531;53.296;6.614;2023-10-13T10:24:42;793.33;;;224.73;;
52642;SDS011;38531;53.296;6.614;2023-10-13T10:27:09;806.30;;;224.77;;
52642;SDS011;38531;53.296;6.614;2023-10-13T10:29:39;807.83;;;224.73;;
52642;SDS011;38531;53.296;6.614;2023-10-13T10:32:17;806.90;;;227.57;;
52642;SDS011;38531;53.296;6.614;2023-10-13T10:34:44;800.43;;;224.57;;
52642;SDS011;38531;53.296;6.614;2023-10-13T10:37:10;774.70;;;222.37;;
52642;SDS011;38531;53.296;6.614;2023-10-13T10:39:37;807.67;;;226.57;;
52642;SDS011;38531;53.296;6.614;2023-10-13T10:42:13;804.58;;;226.45;;
52642;SDS011;38531;53.296;6.614;2023-10-13T10:44:49;787.65;;;221.60;;
52642;SDS011;38531;53.296;6.614;2023-10-13T10:47:20;791.57;;;225.37;;
52642;SDS011;38531;53.296;6.614;2023-10-13T10:50:06;795.80;;;228.23;;
52642;SDS011;38531;53.296;6.614;2023-10-13T10:52:33;785.90;;;226.47;;
52642;SDS011;38531;53.296;6.614;2023-10-13T10:55:05;792.60;;;224.67;;
52642;SDS011;38531;53.296;6.614;2023-10-13T10:57:33;791.63;;;226.37;;
52642;SDS011;38531;53.296;6.614;2023-10-13T11:00:05;799.17;;;224.43;;
52642;SDS011;38531;53.296;6.614;2023-10-13T11:02:39;796.80;;;224.83;;
52642;SDS011;38531;53.296;6.614;2023-10-13T11:05:08;792.23;;;224.83;;
52642;SDS011;38531;53.296;6.614;2023-10-13T11:07:45;804.50;;;225.80;;
52642;SDS011;38531;53.296;6.614;2023-10-13T11:10:16;801.90;;;224.57;;
52642;SDS011;38531;53.296;6.614;2023-10-13T11:12:57;814.53;;;226.87;;
52642;SDS011;38531;53.296;6.614;2023-10-13T11:15:46;830.83;;;228.23;;
52642;SDS011;38531;53.296;6.614;2023-10-13T11:18:13;838.93;;;229.07;;
52642;SDS011;38531;53.296;6.614;2023-10-13T11:20:48;849.28;;;232.93;;
52642;SDS011;38531;53.296;6.614;2023-10-13T11:23:20;848.73;;;233.63;;
52642;SDS011;38531;53.296;6.614;2023-10-13T11:26:00;852.77;;;236.13;;
52642;SDS011;38531;53.296;6.614;2023-10-13T11:28:26;849.05;;;233.40;;
52642;SDS011;38531;53.296;6.614;2023-10-13T11:30:54;847.97;;;235.53;;
52642;SDS011;38531;53.296;6.614;2023-10-13T11:33:24;845.03;;;230.00;;
52642;SDS011;38531;53.296;6.614;2023-10-13T11:35:57;880.60;;;251.03;;
52642;SDS011;38531;53.296;6.614;2023-10-13T11:38:31;892.63;;;256.67;;
52642;SDS011;38531;53.296;6.614;2023-10-13T11:41:10;880.80;;;250.33;;
52642;SDS011;38531;53.296;6.614;2023-10-13T11:43:50;886.60;;;252.97;;
52642;SDS011;38531;53.296;6.614;2023-10-13T11:46:18;884.43;;;250.43;;
52642;SDS011;38531;53.296;6.614;2023-10-13T11:49:06;878.63;;;248.37;;
52642;SDS011;38531;53.296;6.614;2023-10-13T11:51:38;877.93;;;250.83;;
52642;SDS011;38531;53.296;6.614;2023-10-13T11:54:04;893.40;;;265.17;;
52642;SDS011;38531;53.296;6.614;2023-10-13T11:56:30;872.77;;;241.37;;
52642;SDS011;38531;53.296;6.614;2023-10-13T11:58:56;886.93;;;249.20;;
52642;SDS011;38531;53.296;6.614;2023-10-13T12:01:27;877.43;;;242.10;;
52642;SDS011;38531;53.296;6.614;2023-10-13T12:04:11;860.05;;;233.48;;
52642;SDS011;38531;53.296;6.614;2023-10-13T12:06:55;857.20;;;235.83;;
52642;SDS011;38531;53.296;6.614;2023-10-13T12:09:42;850.10;;;233.23;;
52642;SDS011;38531;53.296;6.614;2023-10-13T12:12:21;841.97;;;230.67;;
52642;SDS011;38531;53.296;6.614;2023-10-13T12:14:46;839.77;;;230.57;;
52642;SDS011;38531;53.296;6.614;2023-10-13T12:17:19;858.83;;;238.93;;
52642;SDS011;38531;53.296;6.614;2023-10-13T12:20:02;853.47;;;238.00;;
52642;SDS011;38531;53.296;6.614;2023-10-13T12:25:04;862.87;;;243.07;;
52642;SDS011;38531;53.296;6.614;2023-10-13T12:27:43;871.23;;;244.80;;
52642;SDS011;38531;53.296;6.614;2023-10-13T12:30:15;872.93;;;244.13;;
52642;SDS011;38531;53.296;6.614;2023-10-13T12:32:48;865.83;;;240.17;;
52642;SDS011;38531;53.296;6.614;2023-10-13T12:35:24;841.10;;;228.37;;
52642;SDS011;38531;53.296;6.614;2023-10-13T12:37:55;844.37;;;228.90;;
52642;SDS011;38531;53.296;6.614;2023-10-13T12:40:30;880.38;;;248.15;;
52642;SDS011;38531;53.296;6.614;2023-10-13T12:43:14;871.40;;;243.63;;
52642;SDS011;38531;53.296;6.614;2023-10-13T12:45:58;884.13;;;253.17;;
52642;SDS011;38531;53.296;6.614;2023-10-13T12:48:43;880.97;;;249.60;;
52642;SDS011;38531;53.296;6.614;2023-10-13T12:51:24;881.03;;;250.30;;
52642;SDS011;38531;53.296;6.614;2023-10-13T12:53:56;880.80;;;258.47;;
52642;SDS011;38531;53.296;6.614;2023-10-13T12:56:29;878.63;;;249.60;;
52642;SDS011;38531;53.296;6.614;2023-10-13T12:58:56;883.03;;;253.03;;
52642;SDS011;38531;53.296;6.614;2023-10-13T13:01:22;879.00;;;250.83;;
52642;SDS011;38531;53.296;6.614;2023-10-13T13:03:50;869.47;;;245.03;;
52642;SDS011;38531;53.296;6.614;2023-10-13T13:06:20;862.43;;;242.10;;
52642;SDS011;38531;53.296;6.614;2023-10-13T13:08:53;865.27;;;242.23;;
52642;SDS011;38531;53.296;6.614;2023-10-13T13:11:20;862.07;;;241.33;;
52642;SDS011;38531;53.296;6.614;2023-10-13T13:13:46;861.07;;;239.10;;
52642;SDS011;38531;53.296;6.614;2023-10-13T13:16:12;866.80;;;245.00;;
52642;SDS011;38531;53.296;6.614;2023-10-13T13:18:39;857.33;;;241.33;;
52642;SDS011;38531;53.296;6.614;2023-10-13T13:21:04;844.47;;;232.50;;
52642;SDS011;38531;53.296;6.614;2023-10-13T13:23:31;847.40;;;232.70;;
52642;SDS011;38531;53.296;6.614;2023-10-13T13:25:59;837.13;;;230.17;;
52642;SDS011;38531;53.296;6.614;2023-10-13T13:28:25;843.03;;;235.57;;
52642;SDS011;38531;53.296;6.614;2023-10-13T13:30:54;854.20;;;240.97;;
52642;SDS011;38531;53.296;6.614;2023-10-13T13:33:20;847.63;;;237.67;;
52642;SDS011;38531;53.296;6.614;2023-10-13T13:35:54;843.83;;;235.47;;
52642;SDS011;38531;53.296;6.614;2023-10-13T13:38:20;816.67;;;221.63;;
52642;SDS011;38531;53.296;6.614;2023-10-13T13:40:52;814.10;;;225.23;;
52642;SDS011;38531;53.296;6.614;2023-10-13T13:43:22;827.57;;;227.30;;
52642;SDS011;38531;53.296;6.614;2023-10-13T13:46:03;804.37;;;222.87;;
52642;SDS011;38531;53.296;6.614;2023-10-13T13:48:38;804.50;;;223.87;;
52642;SDS011;38531;53.296;6.614;2023-10-13T13:51:06;802.43;;;224.40;;
52642;SDS011;38531;53.296;6.614;2023-10-13T13:53:44;797.40;;;225.13;;
52642;SDS011;38531;53.296;6.614;2023-10-13T13:56:14;809.87;;;226.13;;
52642;SDS011;38531;53.296;6.614;2023-10-13T13:58:44;804.93;;;225.47;;
52642;SDS011;38531;53.296;6.614;2023-10-13T14:01:10;817.30;;;226.70;;
52642;SDS011;38531;53.296;6.614;2023-10-13T14:03:46;803.67;;;224.47;;
52642;SDS011;38531;53.296;6.614;2023-10-13T14:06:19;807.67;;;224.73;;
52642;SDS011;38531;53.296;6.614;2023-10-13T14:08:49;780.90;;;220.93;;
52642;SDS011;38531;53.296;6.614;2023-10-13T14:11:20;788.40;;;217.63;;
52642;SDS011;38531;53.296;6.614;2023-10-13T14:14:05;801.80;;;222.03;;
52642;SDS011;38531;53.296;6.614;2023-10-13T14:16:37;806.93;;;224.40;;
52642;SDS011;38531;53.296;6.614;2023-10-13T14:19:09;803.47;;;224.90;;
52642;SDS011;38531;53.296;6.614;2023-10-13T14:21:35;792.97;;;221.40;;
52642;SDS011;38531;53.296;6.614;2023-10-13T14:24:01;794.63;;;224.00;;
52642;SDS011;38531;53.296;6.614;2023-10-13T14:26:28;781.00;;;220.87;;
52642;SDS011;38531;53.296;6.614;2023-10-13T14:28:54;774.67;;;222.27;;
52642;SDS011;38531;53.296;6.614;2023-10-13T14:31:39;783.47;;;223.18;;
52642;SDS011;38531;53.296;6.614;2023-10-13T14:34:06;760.73;;;219.43;;
52642;SDS011;38531;53.296;6.614;2023-10-13T14:36:32;783.90;;;222.33;;
52642;SDS011;38531;53.296;6.614;2023-10-13T14:39:07;759.37;;;222.57;;
52642;SDS011;38531;53.296;6.614;2023-10-13T14:41:34;766.93;;;221.57;;
52642;SDS011;38531;53.296;6.614;2023-10-13T14:44:01;782.47;;;221.87;;
52642;SDS011;38531;53.296;6.614;2023-10-13T14:46:30;781.30;;;223.93;;
52642;SDS011;38531;53.296;6.614;2023-10-13T14:48:56;781.60;;;220.57;;
52642;SDS011;38531;53.296;6.614;2023-10-13T14:51:22;786.07;;;225.73;;
52642;SDS011;38531;53.296;6.614;2023-10-13T14:53:50;785.23;;;223.73;;